KWMC

Winnemucca Municipal Airport

Winnemucca, Nevada, USA
KWMC 221120Z 2212/2312 VRB05KT P6SM BKN250 FM230200 17006KT P6SM BKN150
Issued Valid From Valid To
Jan-22 @ 11:20 UTC
(6 hours ago)
Jan-22 @ 12:00 UTC
(5 hours ago)
Jan-23 @ 12:00 UTC
(in 19 hours)
Jan-22 @ 12:00 to Jan-23 @ 02:00
KWMC 221120Z 2212/2312 VRB05KT P6SM BKN250
Wind Visibility Clouds
Variable at 5 knots Greater than 6 miles
  • Broken at 25,000' AGL
From Jan-23 @ 02:00 to Jan-23 @ 12:00
FM230200 17006KT P6SM BKN150
Wind Visibility Clouds
170° at 6 knots Greater than 6 miles
  • Broken at 15,000' AGL
KWMC 221120Z 2212/2312 VRB05KT P6SM BKN250 FM230200 17006KT P6SM BKN150
Issued Jan-22 @ 11:20 UTC
(6 hours ago)
Valid From Jan-22 @ 12:00 UTC
(5 hours ago)
Valid To Jan-23 @ 12:00 UTC
(in 19 hours)
Jan-22 @ 12:00 - Jan-23 @ 02:00
Wind Visibility
Variable at 5 knots Greater than 6 miles
Clouds
  • Broken at 25,000' AGL
From Jan-23 @ 02:00 - Jan-23 @ 12:00
Wind Visibility
170° at 6 knots Greater than 6 miles
Clouds
  • Broken at 15,000' AGL